createdAt,value
2018-05-01T12:31:14.953Z,34.81
2018-05-01T12:33:45.206Z,34.85
2018-05-01T12:38:00.825Z,35.00
2018-05-01T12:40:29.119Z,32.10
2018-05-01T12:42:57.434Z,32.69
2018-05-01T12:45:25.737Z,33.16
2018-05-01T12:47:54.056Z,33.51
2018-05-01T12:50:22.353Z,34.47
2018-05-01T12:52:50.672Z,33.80
2018-05-01T12:55:18.967Z,34.01
2018-05-01T12:57:47.331Z,35.00
2018-05-01T13:00:15.653Z,34.96
2018-05-01T13:02:43.951Z,33.62
2018-05-01T13:05:12.297Z,34.38
2018-05-01T13:07:40.833Z,33.57
2018-05-01T13:10:09.272Z,33.52
2018-05-01T13:12:37.576Z,36.14
2018-05-01T13:15:06.190Z,55.16
2018-05-01T13:17:34.485Z,52.70
2018-05-01T13:20:02.786Z,50.12
2018-05-01T13:22:31.105Z,47.46
2018-05-01T13:24:59.173Z,45.75
2018-05-01T13:27:27.514Z,42.54
2018-05-01T13:29:55.986Z,42.93
2018-05-01T13:32:24.385Z,41.89
2018-05-01T13:37:03.276Z,41.90
2018-05-01T13:39:32.629Z,40.63
2018-05-01T13:42:01.998Z,40.81
2018-05-01T13:44:32.132Z,38.18
2018-05-01T13:47:01.877Z,40.10
2018-05-01T13:49:32.017Z,39.87
2018-05-01T13:52:01.548Z,40.63
2018-05-01T13:54:31.319Z,41.02
2018-05-01T13:57:01.452Z,42.01
2018-05-01T13:59:31.627Z,42.10
2018-05-01T14:02:01.764Z,42.57
2018-05-01T14:08:13.787Z,43.64
2018-05-01T14:10:45.699Z,44.72
2018-05-01T14:13:17.979Z,45.19
2018-05-01T14:15:49.636Z,45.28
2018-05-01T14:18:21.528Z,46.63
2018-05-01T14:22:45.682Z,45.93
2018-05-01T14:25:17.227Z,45.72
2018-05-01T14:27:48.582Z,39.74
2018-05-01T14:30:19.800Z,38.72
2018-05-01T14:32:51.619Z,34.23
2018-05-01T14:39:20.882Z,33.35
2018-05-01T14:41:52.421Z,33.17
2018-05-01T14:44:24.093Z,38.79
2018-05-01T14:47:50.122Z,28.37
2018-05-01T14:50:54.606Z,29.93
2018-05-01T14:53:26.441Z,31.04
2018-05-01T14:55:59.308Z,32.71
2018-05-01T14:58:32.765Z,32.83
2018-05-01T15:01:06.417Z,32.35
2018-05-01T15:03:39.621Z,32.19
2018-05-01T15:06:13.660Z,32.54
2018-05-01T15:08:46.778Z,31.70
2018-05-01T15:11:20.259Z,32.44
2018-05-01T15:24:53.838Z,30.13
2018-05-01T15:27:21.184Z,30.38
2018-05-01T15:31:24.683Z,30.64
2018-05-01T15:33:51.192Z,31.20
2018-05-01T16:16:09.222Z,34.90
2018-05-01T16:30:32.303Z,36.63
2018-05-01T16:33:02.577Z,36.57
2018-05-01T16:35:30.043Z,38.52
2018-05-01T16:38:00.236Z,37.96
2018-05-01T16:40:28.196Z,37.72
2018-05-01T16:42:55.940Z,36.81
2018-05-01T16:45:23.069Z,35.86
2018-05-01T16:47:51.233Z,33.06
2018-05-01T16:52:58.949Z,32.31
2018-05-01T16:55:27.753Z,31.91
2018-05-01T16:57:56.532Z,32.48
2018-05-01T17:00:24.035Z,31.12
2018-05-01T17:02:51.574Z,31.52
2018-05-01T17:05:19.845Z,29.55
2018-05-01T17:07:47.561Z,30.52
2018-05-01T17:10:15.047Z,31.60
2018-05-01T17:12:42.576Z,29.92
2018-05-01T17:15:11.356Z,29.44
2018-05-01T17:17:40.016Z,29.89
2018-05-01T17:20:08.938Z,30.23
2018-05-01T17:22:36.056Z,28.95
2018-05-01T17:27:36.062Z,29.56
2018-05-01T17:30:04.866Z,30.24
2018-05-01T17:32:32.774Z,30.16
2018-05-01T17:36:04.633Z,28.76
2018-05-01T17:41:12.589Z,29.43
2018-05-01T17:43:41.214Z,28.46
2018-05-01T17:46:12.350Z,28.41
2018-05-01T17:48:40.883Z,28.15
2018-05-01T17:51:08.215Z,28.47
2018-05-01T17:53:36.576Z,28.39
2018-05-01T17:56:04.053Z,28.63
2018-05-01T17:58:32.588Z,28.30
2018-05-01T18:01:00.190Z,28.56
2018-05-01T18:03:32.595Z,28.23
2018-05-01T18:06:00.199Z,28.23
2018-05-01T18:08:28.596Z,28.49
2018-05-01T18:13:31.581Z,29.17
2018-05-01T18:15:59.250Z,29.20
2018-05-01T18:18:27.211Z,29.51
2018-05-01T18:20:55.073Z,29.32
2018-05-01T18:23:23.668Z,29.61
2018-05-01T18:25:54.223Z,29.67
2018-05-01T18:28:21.857Z,29.76
2018-05-01T18:30:49.415Z,30.08
2018-05-01T18:33:17.253Z,30.45
2018-05-01T18:35:45.007Z,30.64
2018-05-01T18:38:12.225Z,31.15
2018-05-01T18:40:40.628Z,31.07
2018-05-01T18:43:08.262Z,31.03
2018-05-01T18:45:36.230Z,31.05
2018-05-01T18:48:04.199Z,31.29
2018-05-01T18:50:40.391Z,31.27
2018-05-01T18:55:49.193Z,31.71
2018-05-01T19:00:28.827Z,31.35
2018-05-01T19:02:57.240Z,32.20
2018-05-01T19:05:25.833Z,32.22
2018-05-01T19:07:54.994Z,32.41
2018-05-01T19:10:23.007Z,32.79
2018-05-01T19:12:51.768Z,32.79
2018-05-01T19:15:22.673Z,32.29
2018-05-01T19:17:50.330Z,32.92
2018-05-01T19:20:18.259Z,34.03
2018-05-01T19:22:46.233Z,32.57
2018-05-01T19:25:15.052Z,32.81
2018-05-01T19:27:43.634Z,33.05
2018-05-01T19:30:11.374Z,32.57
2018-05-01T19:32:43.247Z,33.11
2018-05-01T19:35:11.832Z,32.94
2018-05-01T19:37:39.680Z,33.14
2018-05-01T19:40:09.065Z,32.95
2018-05-01T19:42:37.047Z,33.04
2018-05-01T19:45:08.326Z,32.72
2018-05-01T19:47:37.031Z,33.00
2018-05-01T19:51:05.306Z,33.18
2018-05-01T19:53:33.303Z,33.09
2018-05-01T19:56:02.562Z,33.25
2018-05-01T19:58:30.304Z,33.31
2018-05-01T20:00:59.221Z,32.71
2018-05-01T20:03:27.025Z,33.28
2018-05-01T20:05:56.416Z,33.10
2018-05-01T20:08:25.055Z,33.64
2018-05-01T20:10:53.019Z,33.70
2018-05-01T20:13:20.220Z,33.46
2018-05-01T20:15:47.977Z,32.75
2018-05-01T20:18:16.780Z,34.09
2018-05-01T20:20:44.480Z,33.82
2018-05-01T20:23:12.200Z,33.62
2018-05-01T20:25:39.950Z,33.71
2018-05-01T20:28:07.156Z,34.09
2018-05-01T20:30:34.792Z,33.76
2018-05-01T20:33:03.718Z,34.08
2018-05-01T20:35:32.060Z,33.92
2018-05-01T20:37:59.640Z,33.60
2018-05-01T20:40:27.212Z,33.67
2018-05-01T20:42:55.609Z,33.80
2018-05-01T20:45:23.067Z,34.06
2018-05-01T20:47:50.591Z,33.95
2018-05-01T20:50:18.975Z,34.26
2018-05-01T20:52:47.546Z,34.20
2018-05-01T20:55:15.234Z,33.87
2018-05-01T20:57:43.189Z,34.32
2018-05-01T21:00:10.949Z,34.50
2018-05-01T21:02:38.070Z,34.59
2018-05-01T21:05:05.563Z,34.65
2018-05-01T21:07:33.246Z,34.75
2018-05-01T21:10:00.989Z,33.88
2018-05-01T21:12:28.206Z,33.96
2018-05-01T21:14:55.956Z,36.98
2018-05-01T21:17:23.598Z,36.43
2018-05-01T21:22:18.413Z,35.88
2018-05-01T21:27:00.404Z,36.26
2018-05-01T21:29:27.287Z,36.09
2018-05-01T21:31:54.288Z,36.31
